createdAt,value
2018-11-01T00:01:03.120Z,11.07
2018-11-01T00:03:36.616Z,10.99
2018-11-01T00:06:12.373Z,11.00
2018-11-01T00:08:44.750Z,11.06
2018-11-01T00:11:13.731Z,11.05
2018-11-01T00:13:42.658Z,11.02
2018-11-01T00:16:30.823Z,11.02
2018-11-01T00:22:10.314Z,10.99
2018-11-01T00:24:44.160Z,11.01
2018-11-01T00:27:16.278Z,11.02
2018-11-01T00:29:48.676Z,11.02
2018-11-01T00:35:10.474Z,11.01
2018-11-01T00:37:40.538Z,10.99
2018-11-01T00:40:12.510Z,10.97
2018-11-01T00:42:55.040Z,10.91
2018-11-01T00:45:24.926Z,10.86
2018-11-01T00:47:54.780Z,10.88
2018-11-01T00:50:37.343Z,10.91
2018-11-01T00:53:12.622Z,10.82
2018-11-01T00:55:51.772Z,10.88
2018-11-01T00:58:26.073Z,10.77
2018-11-01T01:00:56.027Z,10.71
2018-11-01T01:03:28.252Z,10.69
2018-11-01T01:06:01.247Z,10.80
2018-11-01T01:08:32.550Z,10.79
2018-11-01T01:11:20.342Z,10.73
2018-11-01T01:13:50.264Z,10.72
2018-11-01T01:16:19.209Z,10.70
2018-11-01T01:18:51.999Z,10.67
2018-11-01T01:21:24.858Z,10.67
2018-11-01T01:23:55.835Z,10.52
2018-11-01T01:26:28.154Z,10.52
2018-11-01T01:29:02.199Z,10.44
2018-11-01T01:31:31.174Z,10.38
2018-11-01T01:34:00.028Z,10.45
2018-11-01T01:36:32.587Z,10.36
2018-11-01T01:39:01.438Z,10.35
2018-11-01T01:41:36.104Z,10.34
2018-11-01T01:44:05.680Z,10.25
2018-11-01T01:46:42.746Z,10.21
2018-11-01T01:49:16.976Z,10.09
2018-11-01T01:51:49.002Z,10.13
2018-11-01T01:54:18.983Z,10.15
2018-11-01T01:57:00.287Z,10.15
2018-11-01T01:59:35.233Z,10.15
2018-11-01T02:02:04.437Z,10.09
2018-11-01T02:04:39.032Z,10.13
2018-11-01T02:07:08.032Z,10.17
2018-11-01T02:09:39.382Z,10.22
2018-11-01T02:12:08.529Z,10.17
2018-11-01T02:14:41.848Z,10.15
2018-11-01T02:20:19.370Z,10.22
2018-11-01T02:22:49.395Z,10.26
2018-11-01T02:25:21.931Z,10.16
2018-11-01T02:28:00.351Z,10.17
2018-11-01T02:30:31.423Z,10.28
2018-11-01T02:33:00.415Z,10.31
2018-11-01T02:35:30.355Z,10.27
2018-11-01T02:38:03.900Z,10.10
2018-11-01T02:40:32.812Z,10.13
2018-11-01T02:43:02.745Z,10.28
2018-11-01T02:45:32.613Z,10.28
2018-11-01T02:48:12.222Z,10.10
2018-11-01T02:50:41.158Z,10.15
2018-11-01T02:53:10.016Z,10.18
2018-11-01T02:55:39.957Z,10.07
2018-11-01T02:58:27.693Z,10.06
2018-11-01T03:00:56.600Z,9.97
2018-11-01T03:03:37.973Z,9.99
2018-11-01T03:06:12.041Z,9.98
2018-11-01T03:08:40.904Z,9.99
2018-11-01T03:11:22.648Z,10.03
2018-11-01T03:13:51.491Z,9.98
2018-11-01T03:16:24.772Z,9.88
2018-11-01T03:19:07.596Z,9.89
2018-11-01T03:21:36.669Z,9.98
2018-11-01T03:24:22.212Z,9.86
2018-11-01T03:26:51.128Z,9.93
2018-11-01T03:32:16.789Z,9.77
2018-11-01T03:34:47.713Z,9.67
2018-11-01T03:37:33.288Z,9.62
2018-11-01T03:40:07.860Z,9.63
2018-11-01T03:42:41.304Z,9.71
2018-11-01T03:45:11.652Z,9.68
2018-11-01T03:47:44.556Z,9.57
2018-11-01T03:50:19.947Z,9.54
2018-11-01T03:53:05.113Z,9.67
2018-11-01T03:55:34.438Z,9.52
2018-11-01T03:58:03.787Z,9.50
2018-11-01T04:00:33.665Z,9.54
2018-11-01T04:03:14.459Z,9.47
2018-11-01T04:05:44.356Z,9.46
2018-11-01T04:08:15.280Z,9.58
2018-11-01T04:10:44.590Z,9.53
2018-11-01T04:13:19.154Z,9.52
2018-11-01T04:15:58.465Z,9.36
2018-11-01T04:18:28.991Z,9.38
2018-11-01T04:20:58.380Z,9.42
2018-11-01T04:23:27.801Z,9.39
2018-11-01T04:25:58.890Z,9.33
2018-11-01T04:28:32.852Z,9.32
2018-11-01T04:31:02.780Z,9.38
2018-11-01T04:33:36.774Z,9.38
2018-11-01T04:36:12.927Z,9.22
2018-11-01T04:38:49.694Z,9.02
2018-11-01T04:41:18.623Z,8.96
2018-11-01T04:43:53.638Z,8.88
2018-11-01T04:46:36.866Z,8.87
2018-11-01T04:49:06.322Z,8.86
2018-11-01T04:51:42.011Z,8.98
2018-11-01T04:54:13.737Z,8.85
2018-11-01T04:57:02.469Z,8.99
2018-11-01T04:59:31.371Z,8.98
2018-11-01T05:02:02.355Z,9.08
2018-11-01T05:04:32.243Z,9.15
2018-11-01T05:07:02.173Z,9.19
2018-11-01T05:09:33.084Z,9.21
2018-11-01T05:12:05.480Z,9.04
2018-11-01T05:14:36.473Z,9.18
2018-11-01T05:17:08.516Z,9.18
2018-11-01T05:19:37.370Z,9.01
2018-11-01T05:22:06.216Z,9.20
2018-11-01T05:24:36.236Z,9.21
2018-11-01T05:27:05.204Z,9.23
2018-11-01T05:29:36.166Z,9.20
2018-11-01T05:32:07.075Z,9.14
2018-11-01T05:34:45.576Z,9.08
2018-11-01T05:37:16.543Z,9.07
2018-11-01T05:39:45.504Z,9.14
2018-11-01T05:42:18.776Z,9.13
2018-11-01T05:44:47.676Z,9.08
2018-11-01T05:47:19.747Z,8.97
2018-11-01T05:49:50.710Z,9.15
2018-11-01T05:52:19.602Z,9.03
2018-11-01T05:54:52.505Z,9.07
2018-11-01T05:57:22.671Z,9.14
2018-11-01T05:59:51.659Z,9.11
2018-11-01T06:02:29.356Z,9.22
2018-11-01T06:04:58.214Z,9.14
2018-11-01T06:07:36.176Z,9.21
2018-11-01T06:10:18.390Z,9.22
2018-11-01T06:12:47.270Z,9.19
2018-11-01T06:15:16.113Z,9.17
2018-11-01T06:17:45.020Z,9.10
2018-11-01T06:20:13.890Z,9.05
2018-11-01T06:22:42.752Z,9.06
2018-11-01T06:25:12.652Z,8.99
2018-11-01T06:27:41.538Z,8.96
2018-11-01T06:30:13.056Z,8.91
2018-11-01T06:32:42.118Z,8.97
2018-11-01T06:35:30.517Z,9.01
2018-11-01T06:38:21.739Z,9.01
2018-11-01T06:40:57.908Z,8.98
2018-11-01T06:43:36.956Z,8.87
2018-11-01T06:46:11.363Z,8.87
2018-11-01T06:48:40.325Z,8.76
2018-11-01T06:51:32.182Z,8.76
2018-11-01T06:54:01.056Z,8.76
2018-11-01T06:56:37.351Z,8.76
2018-11-01T06:59:08.539Z,8.64
2018-11-01T07:01:37.376Z,8.55
2018-11-01T07:04:06.383Z,8.51
2018-11-01T07:06:35.949Z,8.64
2018-11-01T07:09:15.946Z,8.72
2018-11-01T07:11:55.087Z,8.83
2018-11-01T07:14:23.962Z,8.82
2018-11-01T07:17:01.182Z,8.81
2018-11-01T07:19:37.290Z,8.87
2018-11-01T07:22:09.620Z,8.96
2018-11-01T07:24:53.383Z,8.97
2018-11-01T07:27:32.788Z,8.99
2018-11-01T07:30:01.683Z,9.08
2018-11-01T07:32:30.569Z,9.19
2018-11-01T07:34:59.402Z,9.12
2018-11-01T07:37:35.920Z,9.16
2018-11-01T07:40:13.774Z,9.25
2018-11-01T07:42:52.657Z,9.58
2018-11-01T07:45:26.294Z,9.63
2018-11-01T07:47:58.496Z,9.59
2018-11-01T07:50:31.476Z,9.52
2018-11-01T07:53:05.924Z,9.57
2018-11-01T07:55:35.892Z,9.72
2018-11-01T07:58:17.146Z,9.75
2018-11-01T08:00:50.611Z,9.75
2018-11-01T08:03:26.988Z,9.77
2018-11-01T08:05:56.043Z,9.68
2018-11-01T08:08:26.931Z,9.79
2018-11-01T08:10:57.841Z,9.97
2018-11-01T08:13:30.504Z,10.08
2018-11-01T08:16:03.394Z,9.96
2018-11-01T08:18:36.146Z,10.10
2018-11-01T08:21:11.581Z,9.97
2018-11-01T08:23:40.509Z,9.91
2018-11-01T08:26:09.805Z,9.89
2018-11-01T08:28:39.806Z,9.92
2018-11-01T08:31:09.963Z,9.85
2018-11-01T08:33:39.212Z,9.87
2018-11-01T08:36:11.865Z,9.96
2018-11-01T08:38:42.767Z,10.05
2018-11-01T08:41:23.201Z,10.00
2018-11-01T08:44:04.912Z,10.07
2018-11-01T08:46:33.830Z,10.17
2018-11-01T08:49:02.770Z,10.30
2018-11-01T08:51:32.757Z,10.39
2018-11-01T08:54:01.698Z,10.68
2018-11-01T08:56:41.788Z,10.67
2018-11-01T08:59:10.798Z,10.66
2018-11-01T09:01:47.580Z,10.74
2018-11-01T09:04:24.297Z,10.79
2018-11-01T09:06:54.262Z,10.88
2018-11-01T09:09:25.157Z,10.93
2018-11-01T09:11:55.229Z,11.06
2018-11-01T09:14:24.195Z,11.09
2018-11-01T09:16:58.849Z,11.20
2018-11-01T09:19:35.062Z,11.23
2018-11-01T09:22:15.184Z,11.27
2018-11-01T09:24:45.202Z,11.33
2018-11-01T09:27:16.388Z,11.38
2018-11-01T09:29:47.311Z,11.58
2018-11-01T09:32:20.437Z,11.58
2018-11-01T09:34:51.331Z,11.67
2018-11-01T09:37:21.274Z,11.59
2018-11-01T09:39:52.219Z,11.68
2018-11-01T09:42:22.269Z,11.79
2018-11-01T09:44:58.279Z,11.79
2018-11-01T09:47:31.266Z,11.78
2018-11-01T09:50:12.354Z,11.76
2018-11-01T09:52:41.613Z,11.79
2018-11-01T09:55:10.528Z,11.76
2018-11-01T09:57:44.888Z,11.73
2018-11-01T10:00:31.532Z,11.74
2018-11-01T10:03:02.510Z,11.79
2018-11-01T10:05:32.505Z,11.89
2018-11-01T10:08:04.789Z,12.03
2018-11-01T10:10:34.760Z,11.97
2018-11-01T10:13:09.194Z,12.03
2018-11-01T10:15:38.672Z,12.02
2018-11-01T10:18:08.942Z,12.17
2018-11-01T10:20:42.498Z,12.08
2018-11-01T10:23:18.939Z,12.24
2018-11-01T10:25:49.013Z,12.10
2018-11-01T10:28:17.958Z,12.06
2018-11-01T10:30:59.076Z,12.11
2018-11-01T10:33:28.004Z,12.17
2018-11-01T10:35:57.876Z,12.10
2018-11-01T10:38:33.517Z,12.18
2018-11-01T10:41:08.406Z,12.31
2018-11-01T10:43:50.059Z,12.25
2018-11-01T10:46:20.044Z,12.22
2018-11-01T10:48:49.053Z,12.22
2018-11-01T10:51:19.085Z,12.22
2018-11-01T10:53:48.140Z,12.23
2018-11-01T10:56:18.968Z,12.19
2018-11-01T10:58:59.045Z,12.19
2018-11-01T11:01:41.856Z,12.23
2018-11-01T11:04:11.045Z,12.25
2018-11-01T11:06:42.048Z,12.33
2018-11-01T11:09:15.102Z,12.42
2018-11-01T11:11:44.457Z,12.45
2018-11-01T11:14:13.518Z,12.67
2018-11-01T11:16:47.044Z,12.55
2018-11-01T11:19:20.096Z,12.45
2018-11-01T11:21:49.012Z,12.38
2018-11-01T11:24:18.886Z,12.37
2018-11-01T11:26:47.828Z,12.28
2018-11-01T11:29:16.800Z,12.24
2018-11-01T11:31:51.233Z,12.29
2018-11-01T11:34:20.131Z,12.32
2018-11-01T11:36:55.657Z,12.34
2018-11-01T11:39:24.570Z,12.38
2018-11-01T11:41:54.437Z,12.47
2018-11-01T11:44:25.400Z,12.41
2018-11-01T11:46:55.312Z,12.56
2018-11-01T11:49:37.533Z,12.47
2018-11-01T11:52:10.490Z,12.41
2018-11-01T11:54:45.520Z,12.50
2018-11-01T11:57:14.437Z,12.51
2018-11-01T11:59:43.312Z,12.36
2018-11-01T12:02:16.248Z,12.35
2018-11-01T12:04:45.112Z,12.34
2018-11-01T12:07:26.514Z,12.30
2018-11-01T12:09:57.471Z,12.25
2018-11-01T12:12:38.384Z,12.31
2018-11-01T12:15:07.520Z,12.30
2018-11-01T12:17:36.988Z,12.30
2018-11-01T12:20:11.923Z,12.17
2018-11-01T12:22:44.412Z,12.13
2018-11-01T12:25:18.208Z,12.12
2018-11-01T12:27:57.678Z,12.12
2018-11-01T12:30:26.562Z,12.15
2018-11-01T12:32:55.563Z,12.18
2018-11-01T12:35:34.937Z,12.11
2018-11-01T12:38:04.762Z,12.18
2018-11-01T12:40:41.815Z,12.14
2018-11-01T12:43:10.682Z,12.14
2018-11-01T12:45:39.556Z,12.10
2018-11-01T12:48:19.118Z,12.17
2018-11-01T12:50:52.895Z,12.21
2018-11-01T12:53:27.418Z,12.20
2018-11-01T12:56:00.019Z,12.11
2018-11-01T12:58:30.936Z,12.25
2018-11-01T13:01:00.078Z,12.17
2018-11-01T13:03:29.244Z,12.23
2018-11-01T13:06:02.480Z,12.28
2018-11-01T13:08:31.377Z,12.32
2018-11-01T13:11:04.105Z,12.28
2018-11-01T13:13:32.988Z,12.28
2018-11-01T13:16:01.856Z,12.23
2018-11-01T13:18:38.776Z,12.26
2018-11-01T13:21:08.676Z,12.20
2018-11-01T13:23:37.670Z,12.29
2018-11-01T13:26:12.335Z,12.25
2018-11-01T13:28:52.954Z,12.19
2018-11-01T13:31:21.842Z,12.13
2018-11-01T13:33:52.834Z,12.11
2018-11-01T13:36:40.908Z,12.10
2018-11-01T13:39:09.816Z,12.03
2018-11-01T13:41:38.792Z,12.00
2018-11-01T13:44:13.319Z,11.96
2018-11-01T13:46:50.823Z,11.93
2018-11-01T13:49:20.211Z,11.87
2018-11-01T13:51:49.576Z,11.88
2018-11-01T13:54:21.206Z,11.94
2018-11-01T13:56:55.644Z,11.87
2018-11-01T13:59:44.845Z,11.76
2018-11-01T14:02:21.603Z,11.74
2018-11-01T14:04:50.599Z,11.70
2018-11-01T14:07:19.566Z,11.81
2018-11-01T14:09:48.437Z,11.76
2018-11-01T14:12:17.320Z,11.86
2018-11-01T14:14:48.589Z,11.76
2018-11-01T14:17:18.184Z,11.69
2018-11-01T14:19:54.540Z,11.61
2018-11-01T14:22:34.649Z,11.63
2018-11-01T14:25:03.610Z,11.69
2018-11-01T14:27:32.596Z,11.69
2018-11-01T14:30:01.547Z,11.72
2018-11-01T14:32:34.576Z,11.73
2018-11-01T14:35:11.004Z,11.72
2018-11-01T14:37:47.533Z,11.58
2018-11-01T14:40:16.475Z,11.67
2018-11-01T14:42:46.385Z,11.65
2018-11-01T14:45:15.313Z,11.60
2018-11-01T14:47:49.616Z,11.64
2018-11-01T14:50:23.733Z,11.71
2018-11-01T14:55:55.009Z,11.74
2018-11-01T14:58:24.372Z,11.72
2018-11-01T15:00:51.806Z,11.46
2018-11-01T15:03:27.100Z,11.39
2018-11-01T15:05:57.095Z,11.50
2018-11-01T15:08:29.704Z,11.50
2018-11-01T15:11:17.106Z,11.45
2018-11-01T15:13:48.088Z,11.44
2018-11-01T15:16:18.996Z,11.33
2018-11-01T15:18:52.327Z,11.35
2018-11-01T15:21:22.368Z,11.28
2018-11-01T15:23:51.284Z,11.20
2018-11-01T15:26:22.371Z,11.30
2018-11-01T15:28:54.572Z,11.17
2018-11-01T15:31:26.858Z,11.18
2018-11-01T15:34:06.301Z,11.08
2018-11-01T15:36:38.836Z,11.02
2018-11-01T15:39:14.189Z,11.03
2018-11-01T15:41:54.011Z,11.08
2018-11-01T15:44:24.330Z,11.06
2018-11-01T15:46:54.235Z,11.14
2018-11-01T15:49:43.687Z,11.03
2018-11-01T15:52:18.235Z,11.10
2018-11-01T15:55:04.742Z,11.11
2018-11-01T15:57:34.967Z,11.10
2018-11-01T16:00:10.092Z,11.10
2018-11-01T16:02:44.059Z,11.23
2018-11-01T16:05:14.031Z,11.09
2018-11-01T16:07:47.802Z,11.10
2018-11-01T16:10:16.811Z,11.04
2018-11-01T16:12:46.728Z,11.10
2018-11-01T16:15:18.712Z,11.13
2018-11-01T16:17:49.627Z,11.12
2018-11-01T16:20:19.749Z,11.06
2018-11-01T16:23:04.569Z,11.03
2018-11-01T16:25:43.365Z,11.01
2018-11-01T16:28:13.431Z,11.18
2018-11-01T16:30:54.600Z,11.08
2018-11-01T16:33:23.590Z,11.15
2018-11-01T16:35:57.971Z,11.10
2018-11-01T16:38:34.464Z,11.06
2018-11-01T16:41:08.130Z,11.26
2018-11-01T16:43:39.010Z,11.27
2018-11-01T16:46:13.040Z,11.32
2018-11-01T16:48:48.342Z,11.34
2018-11-01T16:51:17.360Z,11.23
2018-11-01T16:53:47.404Z,11.27
2018-11-01T16:56:17.710Z,11.19
2018-11-01T16:58:46.629Z,11.30
2018-11-01T17:01:16.584Z,11.22
2018-11-01T17:03:51.557Z,11.22
2018-11-01T17:06:21.520Z,11.14
2018-11-01T17:08:54.994Z,11.07
2018-11-01T17:11:24.226Z,11.15
2018-11-01T17:13:56.954Z,11.16
2018-11-01T17:16:36.769Z,11.17
2018-11-01T17:19:08.501Z,11.05
2018-11-01T17:21:37.974Z,11.09
2018-11-01T17:24:09.101Z,11.22
2018-11-01T17:26:38.026Z,11.03
2018-11-01T17:29:09.035Z,11.16
2018-11-01T17:31:38.011Z,11.25
2018-11-01T17:34:13.137Z,11.09
2018-11-01T17:36:43.012Z,11.08
2018-11-01T17:39:11.966Z,11.16
2018-11-01T17:41:46.881Z,11.15
2018-11-01T17:44:15.830Z,11.05
2018-11-01T17:46:50.579Z,11.03
2018-11-01T17:49:21.016Z,10.98
2018-11-01T17:51:53.464Z,11.05
2018-11-01T17:54:24.982Z,11.05
2018-11-01T17:56:59.979Z,11.06
2018-11-01T17:59:29.536Z,10.98
2018-11-01T18:02:13.397Z,10.91
2018-11-01T18:04:44.166Z,10.92
2018-11-01T18:07:14.011Z,10.96
2018-11-01T18:09:43.495Z,10.88
2018-11-01T18:12:20.773Z,10.94
2018-11-01T18:14:55.422Z,11.08
2018-11-01T18:17:24.857Z,11.03
2018-11-01T18:20:17.427Z,11.01
2018-11-01T18:22:48.892Z,11.00
2018-11-01T18:25:18.349Z,10.94
2018-11-01T18:27:49.699Z,10.98
2018-11-01T18:30:18.874Z,10.99
2018-11-01T18:32:48.637Z,11.00
2018-11-01T18:35:21.106Z,10.91
2018-11-01T18:37:52.885Z,10.90
2018-11-01T18:40:26.441Z,10.85
2018-11-01T18:42:56.642Z,10.85
2018-11-01T18:45:27.045Z,10.81
2018-11-01T18:48:07.831Z,10.82
2018-11-01T18:50:42.800Z,10.85
2018-11-01T18:53:17.310Z,10.84
2018-11-01T18:55:54.766Z,10.83
2018-11-01T18:58:24.192Z,10.85
2018-11-01T19:01:00.679Z,10.92
2018-11-01T19:03:33.479Z,10.87
2018-11-01T19:06:06.885Z,10.89
2018-11-01T19:08:35.970Z,10.91
2018-11-01T19:11:05.461Z,10.99
2018-11-01T19:13:45.462Z,10.89
2018-11-01T19:16:15.306Z,10.88
2018-11-01T19:18:47.826Z,11.02
2018-11-01T19:21:16.804Z,10.99
2018-11-01T19:23:46.759Z,10.96
2018-11-01T19:26:20.709Z,10.87
2018-11-01T19:28:53.160Z,10.86
2018-11-01T19:31:22.092Z,10.83
2018-11-01T19:33:52.091Z,10.95
2018-11-01T19:36:22.981Z,10.85
2018-11-01T19:38:53.901Z,10.90
2018-11-01T19:41:22.921Z,10.86
2018-11-01T19:43:56.065Z,10.72
2018-11-01T19:46:24.979Z,10.77
2018-11-01T19:49:00.762Z,10.72
2018-11-01T19:51:49.443Z,10.75
2018-11-01T19:54:21.475Z,10.68
2018-11-01T19:56:51.364Z,10.79
2018-11-01T19:59:26.218Z,10.75
2018-11-01T20:01:56.251Z,10.76
2018-11-01T20:04:29.836Z,10.74
2018-11-01T20:07:04.757Z,10.78
2018-11-01T20:09:33.743Z,10.84
2018-11-01T20:12:02.722Z,10.73
2018-11-01T20:14:31.751Z,10.79
2018-11-01T20:17:00.692Z,10.86
2018-11-01T20:19:38.143Z,10.79
2018-11-01T20:22:08.038Z,10.80
2018-11-01T20:24:37.307Z,10.82
2018-11-01T20:27:18.107Z,10.78
2018-11-01T20:29:49.018Z,10.79
2018-11-01T20:32:26.294Z,10.78
2018-11-01T20:34:56.236Z,10.81
2018-11-01T20:37:25.264Z,10.84
2018-11-01T20:39:59.185Z,10.84
2018-11-01T20:42:28.145Z,10.77
2018-11-01T20:44:59.084Z,10.78
2018-11-01T20:47:32.736Z,10.88
2018-11-01T20:50:10.604Z,10.93
2018-11-01T20:52:46.978Z,10.85
2018-11-01T20:55:19.725Z,10.81
2018-11-01T20:57:50.700Z,10.82
2018-11-01T21:00:20.608Z,10.81
2018-11-01T21:02:50.561Z,10.76
2018-11-01T21:05:30.183Z,10.75
2018-11-01T21:07:59.124Z,10.85
2018-11-01T21:10:28.007Z,10.86
2018-11-01T21:12:57.019Z,10.86
2018-11-01T21:15:30.331Z,10.92
2018-11-01T21:18:23.527Z,10.79
2018-11-01T21:20:54.570Z,10.78
2018-11-01T21:23:41.787Z,10.81
2018-11-01T21:26:10.782Z,10.80
2018-11-01T21:28:40.723Z,10.79
2018-11-01T21:31:12.785Z,10.78
2018-11-01T21:33:49.707Z,10.85
2018-11-01T21:36:38.508Z,10.82
2018-11-01T21:39:13.189Z,10.86
2018-11-01T21:41:42.175Z,10.85
2018-11-01T21:44:14.385Z,10.99
2018-11-01T21:46:45.382Z,10.92
2018-11-01T21:49:14.483Z,10.88
2018-11-01T21:51:48.909Z,10.88
2018-11-01T21:54:17.876Z,10.90
2018-11-01T21:56:46.909Z,10.93
2018-11-01T21:59:16.220Z,10.88
2018-11-01T22:01:46.650Z,10.94
2018-11-01T22:04:17.058Z,10.97
2018-11-01T22:06:51.007Z,10.94
2018-11-01T22:09:20.299Z,10.95
2018-11-01T22:11:50.185Z,10.93
2018-11-01T22:14:22.465Z,10.97
2018-11-01T22:16:57.910Z,11.13
2018-11-01T22:19:27.596Z,11.14
2018-11-01T22:22:10.868Z,11.14
2018-11-01T22:24:39.772Z,11.19
2018-11-01T22:27:13.450Z,11.20
2018-11-01T22:29:49.985Z,11.27
2018-11-01T22:32:31.812Z,11.30
2018-11-01T22:35:17.327Z,11.27
2018-11-01T22:37:49.884Z,11.36
2018-11-01T22:40:30.893Z,11.32
2018-11-01T22:43:07.753Z,11.26
2018-11-01T22:45:36.664Z,11.36
2018-11-01T22:48:12.805Z,11.43
2018-11-01T22:51:00.839Z,11.44
2018-11-01T22:53:35.526Z,11.46
2018-11-01T22:56:06.042Z,11.41
2018-11-01T22:58:34.983Z,11.42
2018-11-01T23:01:14.336Z,11.43
2018-11-01T23:03:43.281Z,11.50
2018-11-01T23:06:12.407Z,11.50
2018-11-01T23:08:45.301Z,11.40
2018-11-01T23:14:20.343Z,11.37
2018-11-01T23:16:54.873Z,11.35
2018-11-01T23:19:36.654Z,11.36
2018-11-01T23:22:05.792Z,11.44
2018-11-01T23:24:34.745Z,11.48
2018-11-01T23:30:09.418Z,11.45
2018-11-01T23:32:54.986Z,11.42
2018-11-01T23:38:26.165Z,11.51
2018-11-01T23:41:07.737Z,11.56
2018-11-01T23:43:42.948Z,11.53
2018-11-01T23:46:31.386Z,11.57
2018-11-01T23:50:09.212Z,11.54
2018-11-01T23:52:44.077Z,11.58
2018-11-01T23:55:16.165Z,11.60
2018-11-01T23:57:47.256Z,11.66
